Time;durP1;ratioP1;P1;durP2;ratioP2;P2;SDS_P1;SDS_P2;PMS_P1;PMS_P2;Temp;Humidity;BMP_temperature;BMP_pressure;BME280_temperature;BME280_humidity;BME280_pressure;Samples;Min_cycle;Max_cycle;Signal;HPM_P1;HPM_P2
2022/03/06 00:01:58;;;;;;;1.15;0.60;;;18.10;57.70;;;;;;5032562;28;20036;-64
2022/03/06 00:04:24;;;;;;;0.73;0.40;;;18.10;57.70;;;;;;5047852;28;20036;-64
2022/03/06 00:06:50;;;;;;;0.50;0.40;;;18.10;57.70;;;;;;5032123;28;20032;-64
2022/03/06 00:09:15;;;;;;;0.35;0.35;;;18.10;57.70;;;;;;5032429;28;20053;-64
2022/03/06 00:11:41;;;;;;;1.33;0.40;;;18.10;57.70;;;;;;5032242;28;20021;-64
2022/03/06 00:14:07;;;;;;;0.57;0.50;;;18.10;57.80;;;;;;5031634;28;20053;-64
2022/03/06 00:16:32;;;;;;;1.00;0.63;;;18.00;57.80;;;;;;5031206;28;20026;-64
2022/03/06 00:18:58;;;;;;;0.50;0.43;;;18.00;57.70;;;;;;5047780;28;20034;-64
2022/03/06 00:21:24;;;;;;;0.98;0.52;;;18.10;57.70;;;;;;5033602;28;20060;-65
2022/03/06 00:23:49;;;;;;;0.55;0.50;;;18.00;57.70;;;;;;5051916;28;20033;-64
2022/03/06 00:26:15;;;;;;;0.80;0.50;;;18.00;57.70;;;;;;5052086;28;20033;-64
2022/03/06 00:28:40;;;;;;;0.82;0.50;;;18.00;57.70;;;;;;5052149;28;20021;-64
2022/03/06 00:31:06;;;;;;;0.80;0.47;;;18.00;57.70;;;;;;5052063;28;20029;-64
2022/03/06 00:33:32;;;;;;;0.50;0.30;;;18.00;57.70;;;;;;5050838;28;20020;-64
2022/03/06 00:35:57;;;;;;;0.77;0.60;;;18.00;57.70;;;;;;5050635;28;20052;-64
2022/03/06 00:38:23;;;;;;;0.77;0.47;;;18.00;57.80;;;;;;5052064;28;20029;-64
2022/03/06 00:40:49;;;;;;;2.10;0.70;;;18.10;57.70;;;;;;5052120;28;20391;-64
2022/03/06 00:43:15;;;;;;;0.60;0.45;;;18.00;57.70;;;;;;5052065;28;20090;-64
2022/03/06 00:45:42;;;;;;;1.13;0.52;;;18.00;57.70;;;;;;5050711;28;20445;-64
2022/03/06 00:48:07;;;;;;;0.85;0.57;;;18.00;57.80;;;;;;5051846;28;20021;-64
2022/03/06 00:50:38;;;;;;;1.58;0.60;;;18.00;57.70;;;;;;5051820;28;20475;-64
2022/03/06 00:53:05;;;;;;;0.65;0.50;;;18.00;57.70;;;;;;5050751;28;20028;-64
2022/03/06 00:55:31;;;;;;;0.85;0.65;;;18.00;57.70;;;;;;5050695;28;20025;-64
2022/03/06 00:57:57;;;;;;;1.00;0.45;;;18.00;57.70;;;;;;5051915;28;20023;-64
2022/03/06 01:00:23;;;;;;;1.00;0.57;;;18.00;57.70;;;;;;5051824;28;20035;-64
2022/03/06 01:02:48;;;;;;;0.65;0.50;;;18.00;57.70;;;;;;5050433;28;20025;-64
2022/03/06 01:05:14;;;;;;;1.55;0.60;;;18.00;57.70;;;;;;5051738;28;20075;-64
2022/03/06 01:07:40;;;;;;;1.08;0.50;;;18.00;57.80;;;;;;5051592;28;20033;-64
2022/03/06 01:10:06;;;;;;;0.57;0.45;;;18.00;57.80;;;;;;5051711;28;20407;-64
2022/03/06 01:12:32;;;;;;;1.42;0.80;;;18.00;57.70;;;;;;5050402;28;20087;-64
2022/03/06 01:14:58;;;;;;;0.40;0.32;;;18.00;57.80;;;;;;5051772;28;20437;-64
2022/03/06 01:17:24;;;;;;;0.57;0.40;;;18.00;57.70;;;;;;5051612;28;20028;-64
2022/03/06 01:19:50;;;;;;;0.88;0.40;;;18.00;57.70;;;;;;5051526;28;20020;-64
2022/03/06 01:22:16;;;;;;;1.40;0.60;;;18.00;57.70;;;;;;5051136;28;20490;-64
2022/03/06 01:24:42;;;;;;;0.50;0.40;;;18.00;58.00;;;;;;5052267;28;20040;-64
2022/03/06 01:27:07;;;;;;;0.60;0.43;;;18.00;57.70;;;;;;5055258;28;20025;-64
2022/03/06 01:29:33;;;;;;;1.05;0.60;;;18.00;57.70;;;;;;5055118;28;20025;-64
2022/03/06 01:31:59;;;;;;;0.65;0.50;;;18.00;57.70;;;;;;5037257;28;20017;-64
2022/03/06 01:34:24;;;;;;;0.63;0.50;;;18.00;57.70;;;;;;5054874;28;20029;-64
2022/03/06 01:36:50;;;;;;;1.15;0.57;;;18.00;57.70;;;;;;5054905;28;20029;-64
2022/03/06 01:39:16;;;;;;;0.77;0.47;;;18.00;57.70;;;;;;5055158;28;20035;-64
2022/03/06 01:41:41;;;;;;;1.45;0.60;;;18.00;57.70;;;;;;5054880;28;20052;-64
2022/03/06 01:44:11;;;;;;;1.00;0.60;;;18.00;57.70;;;;;;5055010;28;20096;-64
2022/03/06 01:46:37;;;;;;;0.40;0.40;;;18.00;57.70;;;;;;5053619;28;20017;-64
2022/03/06 01:49:02;;;;;;;1.20;0.60;;;18.00;57.80;;;;;;5054681;28;20021;-64
2022/03/06 01:51:28;;;;;;;0.60;0.32;;;18.00;57.70;;;;;;5054669;28;20025;-64
2022/03/06 01:53:54;;;;;;;0.32;0.30;;;18.00;57.80;;;;;;5054758;28;20037;-64
2022/03/06 01:56:19;;;;;;;0.80;0.50;;;17.90;57.70;;;;;;5054654;28;20048;-64
2022/03/06 01:58:45;;;;;;;0.63;0.52;;;18.00;57.80;;;;;;5053368;28;20547;-64
2022/03/06 02:01:11;;;;;;;0.80;0.60;;;18.00;57.70;;;;;;5053358;28;20027;-64
2022/03/06 02:03:36;;;;;;;0.77;0.40;;;18.00;57.80;;;;;;5054379;28;20060;-64
2022/03/06 02:06:04;;;;;;;1.02;0.50;;;17.90;57.70;;;;;;5054481;28;20117;-64
2022/03/06 02:08:30;;;;;;;0.95;0.50;;;18.00;57.70;;;;;;5054472;28;20044;-64
2022/03/06 02:10:55;;;;;;;1.00;0.40;;;17.90;57.70;;;;;;5054359;28;20053;-64
2022/03/06 02:13:21;;;;;;;0.52;0.45;;;18.00;57.80;;;;;;5054312;28;20028;-64
2022/03/06 02:15:47;;;;;;;1.48;0.57;;;18.00;57.70;;;;;;5053201;28;20017;-64
2022/03/06 02:18:12;;;;;;;0.22;0.22;;;17.90;57.70;;;;;;5052929;28;20133;-64
2022/03/06 02:20:38;;;;;;;1.42;0.63;;;17.90;57.70;;;;;;5054220;28;20071;-64
2022/03/06 02:23:04;;;;;;;0.55;0.40;;;17.90;57.70;;;;;;5053729;28;20091;-64
2022/03/06 02:25:33;;;;;;;0.65;0.40;;;17.90;57.70;;;;;;5052813;28;20423;-64
2022/03/06 02:28:01;;;;;;;0.50;0.40;;;17.90;57.70;;;;;;5052968;28;20079;-64
2022/03/06 02:30:29;;;;;;;1.23;0.45;;;18.00;57.70;;;;;;5054164;28;20439;-64
2022/03/06 02:32:55;;;;;;;1.10;0.50;;;17.90;57.70;;;;;;5052763;28;20112;-64
2022/03/06 02:35:21;;;;;;;1.00;0.50;;;17.90;57.80;;;;;;5052754;28;20092;-64
2022/03/06 02:37:46;;;;;;;1.05;0.60;;;17.90;57.70;;;;;;5035262;28;20037;-64
2022/03/06 02:40:13;;;;;;;0.73;0.40;;;18.00;57.80;;;;;;5053768;28;20036;-64
2022/03/06 02:42:41;;;;;;;0.85;0.60;;;17.90;57.70;;;;;;5053672;28;20391;-64
2022/03/06 02:45:25;;;;;;;1.45;0.55;;;17.90;57.70;;;;;;5053864;28;20028;-64
2022/03/06 02:47:52;;;;;;;1.02;0.43;;;18.00;57.60;;;;;;5035532;28;20110;-64
2022/03/06 02:50:23;;;;;;;1.85;0.65;;;17.90;57.70;;;;;;5052404;28;20032;-64
2022/03/06 02:52:49;;;;;;;1.88;0.63;;;17.90;57.70;;;;;;5052358;28;20021;-64
2022/03/06 02:55:16;;;;;;;0.93;0.35;;;17.90;57.70;;;;;;5053576;28;20055;-64
2022/03/06 02:57:42;;;;;;;1.17;0.40;;;18.00;57.80;;;;;;5052132;28;20402;-64
2022/03/06 03:00:10;;;;;;;0.95;0.50;;;17.90;57.70;;;;;;5053381;28;20020;-64
2022/03/06 03:02:37;;;;;;;1.35;0.40;;;17.90;57.70;;;;;;5053278;28;20074;-64
2022/03/06 03:05:05;;;;;;;1.05;0.43;;;17.90;57.70;;;;;;5053290;28;20029;-64
2022/03/06 03:07:30;;;;;;;0.43;0.30;;;17.90;57.70;;;;;;5035552;28;20017;-64
2022/03/06 03:09:56;;;;;;;0.55;0.40;;;17.90;57.70;;;;;;5053238;28;20044;-64
2022/03/06 03:12:22;;;;;;;0.63;0.55;;;17.90;57.70;;;;;;5053251;28;20021;-64
2022/03/06 03:14:47;;;;;;;0.55;0.40;;;17.90;57.80;;;;;;5053077;28;20021;-64
2022/03/06 03:17:13;;;;;;;0.82;0.50;;;17.90;57.80;;;;;;5052923;28;20552;-64
2022/03/06 03:19:38;;;;;;;0.75;0.40;;;17.90;57.70;;;;;;5052926;28;20483;-64
2022/03/06 03:22:04;;;;;;;0.70;0.52;;;17.90;57.70;;;;;;5051701;28;20515;-64
2022/03/06 03:24:30;;;;;;;0.50;0.40;;;17.90;57.80;;;;;;5052874;28;20402;-64
2022/03/06 03:26:55;;;;;;;0.68;0.40;;;17.90;57.70;;;;;;5052891;28;20037;-64
2022/03/06 03:29:21;;;;;;;1.17;0.43;;;17.90;57.70;;;;;;5051694;28;20062;-64
2022/03/06 03:31:47;;;;;;;0.75;0.50;;;17.90;57.70;;;;;;5052685;28;20056;-64
2022/03/06 03:34:12;;;;;;;0.85;0.50;;;17.90;57.70;;;;;;5052710;28;20048;-64
2022/03/06 03:36:39;;;;;;;0.40;0.40;;;17.90;57.70;;;;;;5052910;28;20486;-64
2022/03/06 03:39:05;;;;;;;0.50;0.40;;;17.90;57.70;;;;;;5051643;28;20021;-64
2022/03/06 03:41:31;;;;;;;0.40;0.40;;;17.90;57.70;;;;;;5052510;28;20029;-64
2022/03/06 03:43:56;;;;;;;0.50;0.47;;;17.90;57.70;;;;;;5051522;28;20017;-64
2022/03/06 03:46:22;;;;;;;0.40;0.30;;;17.90;57.70;;;;;;5034530;28;20061;-64
2022/03/06 03:48:48;;;;;;;0.55;0.32;;;17.90;57.70;;;;;;5052322;28;20017;-64
2022/03/06 03:51:13;;;;;;;0.50;0.47;;;17.90;57.70;;;;;;5052688;28;20020;-64
2022/03/06 03:53:39;;;;;;;1.90;0.60;;;17.90;57.70;;;;;;5052330;28;20032;-64
2022/03/06 03:56:05;;;;;;;0.65;0.40;;;17.90;57.80;;;;;;5052958;28;20383;-64
2022/03/06 03:58:32;;;;;;;0.85;0.60;;;17.90;57.70;;;;;;5052534;28;20100;-64
2022/03/06 04:00:57;;;;;;;1.20;0.47;;;17.90;57.70;;;;;;5034342;28;20046;-64
2022/03/06 04:03:23;;;;;;;0.60;0.57;;;17.90;57.80;;;;;;5052378;28;20445;-64
2022/03/06 04:05:49;;;;;;;0.75;0.50;;;17.90;57.70;;;;;;5052207;28;20029;-64
2022/03/06 04:08:14;;;;;;;0.82;0.50;;;17.90;57.70;;;;;;5051130;28;20526;-64
2022/03/06 04:10:40;;;;;;;0.57;0.47;;;17.90;57.80;;;;;;5052324;28;20479;-64
2022/03/06 04:13:06;;;;;;;0.88;0.40;;;17.90;57.70;;;;;;5034456;28;20491;-64
2022/03/06 04:15:31;;;;;;;0.50;0.40;;;17.90;57.70;;;;;;5052116;28;20063;-64
2022/03/06 04:17:57;;;;;;;0.70;0.50;;;17.90;57.70;;;;;;5052105;28;20025;-64
2022/03/06 04:20:23;;;;;;;1.70;0.57;;;17.90;57.70;;;;;;5052170;28;20025;-64
2022/03/06 04:22:49;;;;;;;1.23;0.47;;;17.90;57.70;;;;;;5051721;28;20151;-64
2022/03/06 04:25:14;;;;;;;0.85;0.65;;;17.90;57.70;;;;;;5051135;28;20029;-64
2022/03/06 04:27:40;;;;;;;0.68;0.50;;;17.90;57.70;;;;;;5051994;28;20126;-64
2022/03/06 04:30:06;;;;;;;0.50;0.32;;;17.90;57.70;;;;;;5051866;28;20057;-64
2022/03/06 04:32:32;;;;;;;0.40;0.40;;;17.90;57.70;;;;;;5051025;28;20032;-64
2022/03/06 04:34:58;;;;;;;0.73;0.30;;;17.90;57.70;;;;;;5051948;28;20029;-64
2022/03/06 04:37:24;;;;;;;0.65;0.30;;;17.90;57.70;;;;;;5051970;28;20029;-64
2022/03/06 04:39:49;;;;;;;0.32;0.30;;;17.90;57.70;;;;;;5052058;28;20025;-64
2022/03/06 04:42:15;;;;;;;0.57;0.30;;;17.90;57.70;;;;;;5052196;28;20025;-64
2022/03/06 04:44:41;;;;;;;0.40;0.40;;;17.90;57.70;;;;;;5051967;28;20384;-64
2022/03/06 04:47:07;;;;;;;0.88;0.50;;;17.90;57.70;;;;;;5051745;28;20047;-64
2022/03/06 04:49:32;;;;;;;0.65;0.40;;;17.90;57.70;;;;;;5051982;28;20021;-64
2022/03/06 04:51:58;;;;;;;0.85;0.43;;;17.90;57.70;;;;;;5051968;28;20024;-64
2022/03/06 04:54:24;;;;;;;0.68;0.45;;;17.90;57.70;;;;;;5051926;28;20032;-64
2022/03/06 04:56:50;;;;;;;0.80;0.43;;;17.90;57.70;;;;;;5051640;28;20052;-64
2022/03/06 04:59:16;;;;;;;0.80;0.50;;;17.90;57.80;;;;;;5034286;28;20068;-64
2022/03/06 05:01:41;;;;;;;0.60;0.43;;;17.90;57.70;;;;;;5055587;28;20025;-64
2022/03/06 05:04:07;;;;;;;1.17;0.60;;;17.90;57.70;;;;;;5054474;28;20036;-64
2022/03/06 05:06:32;;;;;;;0.50;0.50;;;17.90;57.70;;;;;;5055758;28;20025;-64
2022/03/06 05:08:58;;;;;;;1.05;0.57;;;17.90;57.70;;;;;;5055507;28;20028;-64
2022/03/06 05:11:24;;;;;;;0.70;0.60;;;17.90;57.70;;;;;;5055325;28;20028;-64
2022/03/06 05:13:49;;;;;;;0.98;0.63;;;17.90;57.70;;;;;;5055467;28;20079;-64
2022/03/06 05:16:15;;;;;;;1.05;0.50;;;17.90;57.70;;;;;;5055474;28;20025;-64
2022/03/06 05:18:41;;;;;;;0.40;0.40;;;17.90;57.70;;;;;;5055594;28;20479;-64
2022/03/06 05:21:06;;;;;;;0.85;0.68;;;17.90;57.70;;;;;;5055376;28;20024;-64
2022/03/06 05:23:32;;;;;;;1.35;0.98;;;17.90;57.70;;;;;;5055047;28;20053;-64
2022/03/06 05:25:58;;;;;;;0.98;0.70;;;17.90;57.70;;;;;;5054759;28;20085;-64
2022/03/06 05:28:24;;;;;;;1.13;0.60;;;17.90;57.70;;;;;;5054018;28;20372;-64
2022/03/06 05:30:49;;;;;;;0.70;0.70;;;17.90;57.70;;;;;;5053944;28;20028;-64
2022/03/06 05:33:15;;;;;;;1.05;0.70;;;17.90;57.70;;;;;;5037571;28;20021;-64
2022/03/06 05:35:41;;;;;;;0.82;0.75;;;17.80;57.60;;;;;;5055101;28;20024;-65
2022/03/06 05:38:07;;;;;;;0.98;0.77;;;17.90;57.70;;;;;;5054636;28;20025;-64
2022/03/06 05:40:33;;;;;;;0.77;0.70;;;17.90;57.70;;;;;;5037212;28;20033;-64
2022/03/06 05:42:58;;;;;;;1.38;0.70;;;17.90;57.70;;;;;;5054771;28;20029;-64
2022/03/06 05:45:24;;;;;;;0.90;0.90;;;17.90;57.70;;;;;;5055016;28;20053;-64
2022/03/06 05:47:50;;;;;;;2.05;1.10;;;17.90;57.70;;;;;;5054646;28;20499;-64
2022/03/06 05:50:15;;;;;;;0.98;0.68;;;17.90;57.80;;;;;;5054594;28;20507;-64
2022/03/06 05:52:41;;;;;;;1.05;0.82;;;17.90;57.70;;;;;;5053600;28;20395;-64
2022/03/06 05:55:07;;;;;;;1.10;0.77;;;17.90;57.70;;;;;;5053295;28;20105;-64
2022/03/06 05:57:33;;;;;;;0.98;0.90;;;17.80;57.70;;;;;;5053840;28;20033;-64
2022/03/06 05:59:58;;;;;;;1.30;1.10;;;17.90;57.70;;;;;;5053469;28;20055;-64
2022/03/06 06:02:24;;;;;;;1.90;1.00;;;17.90;57.70;;;;;;5054639;28;20039;-64
2022/03/06 06:04:50;;;;;;;1.20;1.10;;;17.90;57.70;;;;;;5053354;28;20108;-64
2022/03/06 06:07:16;;;;;;;0.90;0.90;;;17.90;57.70;;;;;;5054384;28;20033;-64
2022/03/06 06:09:41;;;;;;;1.35;1.00;;;17.90;57.80;;;;;;5053184;28;20379;-64
2022/03/06 06:12:07;;;;;;;1.17;0.98;;;17.90;57.70;;;;;;5053132;28;20479;-64
2022/03/06 06:14:33;;;;;;;1.60;1.00;;;17.90;57.70;;;;;;5053037;28;20021;-64
2022/03/06 06:16:59;;;;;;;0.90;0.90;;;17.90;57.80;;;;;;5054102;28;20100;-64
2022/03/06 06:19:24;;;;;;;2.33;1.23;;;17.90;57.70;;;;;;5054394;28;20479;-64
2022/03/06 06:21:50;;;;;;;1.55;1.23;;;17.80;57.70;;;;;;5053927;28;20122;-64
2022/03/06 06:24:16;;;;;;;1.10;1.00;;;17.90;57.70;;;;;;5053782;28;20021;-64
2022/03/06 06:26:42;;;;;;;1.25;1.00;;;17.90;57.80;;;;;;5054243;28;20107;-64
2022/03/06 06:29:08;;;;;;;1.33;1.20;;;17.80;57.70;;;;;;5036228;28;20017;-64
2022/03/06 06:31:34;;;;;;;1.42;1.25;;;17.80;57.70;;;;;;5036211;28;20035;-64
2022/03/06 06:33:59;;;;;;;1.33;1.20;;;17.80;57.70;;;;;;5052715;28;20021;-64
2022/03/06 06:36:25;;;;;;;1.92;1.40;;;17.90;57.70;;;;;;5054257;28;20159;-64
2022/03/06 06:38:51;;;;;;;2.00;1.30;;;17.80;57.70;;;;;;5053692;28;20100;-64
2022/03/06 06:41:17;;;;;;;2.22;1.25;;;17.90;57.80;;;;;;5053735;28;20126;-64
2022/03/06 06:43:42;;;;;;;1.52;1.42;;;17.90;57.70;;;;;;5053710;28;20021;-64
2022/03/06 06:46:09;;;;;;;1.85;1.17;;;17.90;57.80;;;;;;5052446;28;20450;-64
2022/03/06 06:48:34;;;;;;;1.45;1.10;;;17.90;57.70;;;;;;5053842;28;20017;-64
2022/03/06 06:51:00;;;;;;;2.00;1.58;;;17.90;57.70;;;;;;5053683;28;20383;-64
2022/03/06 06:53:26;;;;;;;1.40;1.25;;;17.90;57.70;;;;;;5053401;28;20490;-64
2022/03/06 06:55:51;;;;;;;1.35;1.25;;;17.80;57.70;;;;;;5052626;28;20025;-64
2022/03/06 06:58:17;;;;;;;2.25;1.52;;;17.80;57.80;;;;;;5053567;28;20498;-64
2022/03/06 07:00:43;;;;;;;1.80;1.35;;;17.80;57.80;;;;;;5053491;28;20406;-64
2022/03/06 07:03:09;;;;;;;2.30;1.45;;;17.80;57.70;;;;;;5053387;28;20025;-64
2022/03/06 07:05:35;;;;;;;1.73;1.60;;;17.90;57.70;;;;;;5035336;28;20044;-64
2022/03/06 07:08:00;;;;;;;1.30;1.20;;;17.80;57.70;;;;;;5053000;28;20503;-64
2022/03/06 07:10:26;;;;;;;1.65;1.30;;;17.80;57.70;;;;;;5053490;28;20021;-64
2022/03/06 07:12:54;;;;;;;1.63;1.52;;;17.80;57.70;;;;;;5053284;28;20060;-64
2022/03/06 07:15:20;;;;;;;1.73;1.40;;;17.80;57.70;;;;;;5053126;28;20021;-64
2022/03/06 07:17:46;;;;;;;1.88;1.50;;;17.80;57.70;;;;;;5053191;28;20033;-64
2022/03/06 07:20:12;;;;;;;1.63;1.45;;;17.80;57.70;;;;;;5052895;28;20043;-64
2022/03/06 07:22:38;;;;;;;1.48;1.33;;;17.90;57.70;;;;;;5052138;28;20037;-64
2022/03/06 07:25:04;;;;;;;2.28;1.55;;;17.80;57.70;;;;;;5052798;28;20025;-64
2022/03/06 07:27:30;;;;;;;1.58;1.30;;;17.80;57.70;;;;;;5052768;28;20075;-64
2022/03/06 07:29:56;;;;;;;2.20;1.23;;;17.80;57.70;;;;;;5052941;28;20048;-64
2022/03/06 07:32:22;;;;;;;1.50;1.40;;;17.80;57.70;;;;;;5052769;28;20021;-64
2022/03/06 07:34:48;;;;;;;1.60;1.50;;;17.80;57.70;;;;;;5052971;28;20071;-64
2022/03/06 07:37:14;;;;;;;1.73;1.50;;;17.80;57.70;;;;;;5051483;28;20025;-64
2022/03/06 07:39:39;;;;;;;2.25;1.40;;;17.80;57.70;;;;;;5052759;28;20082;-64
2022/03/06 07:42:05;;;;;;;1.40;1.30;;;17.80;57.70;;;;;;5052565;28;20033;-64
2022/03/06 07:44:31;;;;;;;1.77;1.58;;;17.80;57.70;;;;;;5034899;28;20029;-64
2022/03/06 07:46:56;;;;;;;1.75;1.58;;;17.80;57.70;;;;;;5052628;28;20905;-64
2022/03/06 07:49:22;;;;;;;2.67;1.38;;;17.80;57.70;;;;;;5052691;28;20036;-64
2022/03/06 07:51:48;;;;;;;3.25;1.90;;;17.80;57.70;;;;;;5052466;28;20032;-64
2022/03/06 07:54:14;;;;;;;2.33;1.67;;;17.80;57.70;;;;;;5052420;28;20014;-64
2022/03/06 07:56:49;;;;;;;1.88;1.60;;;17.80;57.70;;;;;;5052609;28;20025;-64
2022/03/06 07:59:14;;;;;;;1.75;1.40;;;17.90;57.80;;;;;;5051248;28;20025;-64
2022/03/06 08:01:40;;;;;;;2.35;1.60;;;17.80;57.70;;;;;;5052415;28;20041;-64
2022/03/06 08:04:06;;;;;;;2.50;1.50;;;17.80;57.70;;;;;;5052146;28;20056;-64
2022/03/06 08:06:31;;;;;;;1.77;1.30;;;17.80;57.80;;;;;;5052277;28;20057;-64
2022/03/06 08:08:57;;;;;;;2.15;1.60;;;17.80;57.80;;;;;;5052220;28;20033;-64
2022/03/06 08:11:23;;;;;;;1.80;1.40;;;17.80;57.70;;;;;;5052217;28;20032;-64
2022/03/06 08:13:48;;;;;;;1.80;1.70;;;17.80;57.80;;;;;;5052308;28;20049;-64
2022/03/06 08:16:14;;;;;;;2.20;1.60;;;17.80;57.80;;;;;;5052144;28;20044;-64
2022/03/06 08:18:40;;;;;;;1.95;1.75;;;17.80;57.70;;;;;;5052357;28;20028;-64
2022/03/06 08:21:05;;;;;;;2.33;1.60;;;17.80;57.80;;;;;;5052050;28;20395;-64
2022/03/06 08:23:31;;;;;;;2.70;1.80;;;17.80;57.80;;;;;;5051895;28;20384;-64
2022/03/06 08:25:57;;;;;;;2.60;1.80;;;17.80;57.80;;;;;;5052207;28;20505;-64
2022/03/06 08:28:22;;;;;;;1.70;1.60;;;17.80;57.80;;;;;;5052085;28;20028;-64
2022/03/06 08:30:48;;;;;;;1.83;1.65;;;17.80;58.70;;;;;;5052288;28;20029;-64
2022/03/06 08:33:13;;;;;;;2.00;1.80;;;17.80;57.80;;;;;;5052138;28;20056;-64
2022/03/06 08:35:39;;;;;;;2.08;1.88;;;17.80;57.80;;;;;;5054436;28;20111;-64
2022/03/06 08:38:05;;;;;;;2.67;2.00;;;17.80;57.80;;;;;;5055973;28;20104;-64
2022/03/06 08:40:31;;;;;;;1.98;1.77;;;17.80;57.80;;;;;;5056218;28;20029;-64
2022/03/06 08:42:57;;;;;;;1.50;1.40;;;17.80;57.80;;;;;;5056146;28;20422;-64
2022/03/06 08:45:23;;;;;;;2.72;1.98;;;17.80;57.80;;;;;;5055960;28;20025;-64
2022/03/06 08:47:49;;;;;;;2.90;2.17;;;17.70;57.70;;;;;;5054835;28;20031;-64
2022/03/06 08:50:15;;;;;;;2.15;1.60;;;17.80;57.80;;;;;;5055505;28;20100;-64
2022/03/06 08:52:40;;;;;;;2.10;1.65;;;17.80;57.80;;;;;;5055807;28;20021;-64
2022/03/06 08:55:08;;;;;;;2.03;1.85;;;17.70;57.70;;;;;;5055798;28;20079;-64
2022/03/06 08:57:33;;;;;;;1.90;1.70;;;17.80;57.70;;;;;;5054604;28;20096;-64
2022/03/06 08:59:59;;;;;;;2.00;1.83;;;17.80;57.80;;;;;;5055773;28;20029;-64
2022/03/06 09:02:25;;;;;;;2.78;1.90;;;17.80;57.80;;;;;;5055747;28;20029;-64
2022/03/06 09:04:50;;;;;;;2.65;2.20;;;17.80;57.80;;;;;;5055569;28;20498;-64
2022/03/06 09:07:16;;;;;;;2.17;1.88;;;17.70;57.70;;;;;;5054339;28;20509;-64
2022/03/06 09:09:42;;;;;;;1.70;1.55;;;17.80;57.80;;;;;;5055646;28;20143;-64
2022/03/06 09:12:07;;;;;;;2.10;1.90;;;17.80;57.80;;;;;;5055489;28;20406;-64
2022/03/06 09:14:33;;;;;;;2.42;1.90;;;17.70;57.70;;;;;;5055641;28;20391;-64
2022/03/06 09:16:59;;;;;;;3.03;2.13;;;17.80;57.80;;;;;;5055504;28;20406;-64
2022/03/06 09:19:24;;;;;;;2.13;1.92;;;17.80;57.80;;;;;;5054987;28;20036;-64
2022/03/06 09:21:50;;;;;;;2.78;2.00;;;17.80;57.80;;;;;;5055279;28;20049;-64
2022/03/06 09:24:16;;;;;;;2.55;1.98;;;17.80;57.80;;;;;;5055057;28;20029;-64
2022/03/06 09:26:43;;;;;;;3.50;2.38;;;17.80;57.80;;;;;;5055107;28;20124;-64
2022/03/06 09:29:08;;;;;;;2.25;1.75;;;17.80;57.80;;;;;;5055241;28;20013;-64
2022/03/06 09:31:34;;;;;;;1.75;1.55;;;17.70;57.70;;;;;;5054967;28;20360;-64
2022/03/06 09:34:00;;;;;;;2.38;1.83;;;17.80;57.80;;;;;;5054985;28;20018;-64
2022/03/06 09:36:25;;;;;;;2.35;1.73;;;17.80;57.80;;;;;;5055126;28;20548;-64
2022/03/06 09:38:51;;;;;;;1.90;1.70;;;17.80;57.80;;;;;;5054958;28;20083;-64
2022/03/06 09:41:17;;;;;;;1.80;1.70;;;17.70;57.70;;;;;;5054734;28;20380;-64
2022/03/06 09:43:43;;;;;;;2.65;2.20;;;17.80;57.80;;;;;;5053681;28;20044;-64
2022/03/06 09:46:09;;;;;;;1.80;1.65;;;17.80;57.80;;;;;;5054662;28;20028;-64
2022/03/06 09:48:35;;;;;;;2.97;2.08;;;17.80;57.70;;;;;;5054844;28;20025;-64
2022/03/06 09:51:02;;;;;;;2.47;1.95;;;17.80;57.80;;;;;;5054899;28;20033;-64
2022/03/06 09:53:27;;;;;;;2.92;1.90;;;17.80;57.70;;;;;;5054646;28;20155;-64
2022/03/06 09:55:53;;;;;;;3.20;2.13;;;17.80;57.70;;;;;;5053680;28;20104;-64
2022/03/06 09:58:19;;;;;;;2.08;1.83;;;17.80;57.80;;;;;;5054667;28;20100;-64
2022/03/06 10:00:44;;;;;;;2.45;2.17;;;17.70;57.70;;;;;;5054685;28;20036;-64
2022/03/06 10:03:19;;;;;;;2.25;2.03;;;17.80;57.80;;;;;;5054341;28;20474;-64
2022/03/06 10:05:45;;;;;;;2.45;1.88;;;17.80;57.70;;;;;;5036925;28;20521;-64
2022/03/06 10:08:16;;;;;;;1.98;1.73;;;17.80;57.80;;;;;;5054410;28;20025;-64
2022/03/06 10:10:41;;;;;;;3.13;2.13;;;17.80;57.80;;;;;;5053361;28;20099;-64
2022/03/06 10:13:16;;;;;;;2.85;1.70;;;17.80;57.80;;;;;;5054407;28;20049;-64
2022/03/06 10:16:10;;;;;;;3.45;2.00;;;17.70;57.70;;;;;;5054734;28;20025;-64
2022/03/06 10:18:43;;;;;;;2.58;1.80;;;17.80;57.60;;;;;;5054378;28;20498;-64
2022/03/06 10:21:10;;;;;;;1.77;1.42;;;17.80;57.90;;;;;;5036583;28;20025;-64
2022/03/06 10:23:36;;;;;;;1.70;1.60;;;17.70;58.80;;;;;;5040945;28;20056;-64
2022/03/06 10:26:07;;;;;;;2.80;1.90;;;17.80;57.80;;;;;;5033158;28;20419;-64
2022/03/06 10:28:43;;;;;;;2.20;1.70;;;17.70;57.80;;;;;;5033959;28;20050;-64
2022/03/06 10:31:08;;;;;;;2.60;1.75;;;17.80;57.80;;;;;;5033009;28;20014;-64
2022/03/06 10:33:34;;;;;;;2.85;1.95;;;17.70;57.80;;;;;;5033979;28;20032;-64
2022/03/06 10:36:02;;;;;;;2.72;1.35;;;17.80;57.80;;;;;;5033085;28;20021;-64
2022/03/06 10:38:31;;;;;;;1.35;1.23;;;17.80;57.80;;;;;;5033842;28;20395;-64
2022/03/06 10:41:11;;;;;;;1.95;1.55;;;17.80;57.80;;;;;;5032751;28;20025;-64
2022/03/06 10:43:36;;;;;;;1.95;1.75;;;17.80;57.80;;;;;;5016459;28;20026;-64
2022/03/06 10:46:18;;;;;;;2.15;1.80;;;17.80;57.80;;;;;;5033702;28;20009;-64
2022/03/06 10:49:11;;;;;;;1.77;1.52;;;17.80;57.80;;;;;;5032679;28;20438;-64
2022/03/06 10:51:44;;;;;;;2.25;1.50;;;17.80;57.70;;;;;;5028402;28;20037;-64
2022/03/06 10:54:10;;;;;;;1.95;1.70;;;17.70;57.80;;;;;;5015946;28;20030;-64
2022/03/06 10:56:35;;;;;;;1.58;1.48;;;17.80;57.90;;;;;;5032559;28;20069;-64
2022/03/06 10:59:03;;;;;;;2.30;1.70;;;17.70;57.80;;;;;;5033009;28;20039;-64
2022/03/06 11:01:29;;;;;;;1.58;1.48;;;17.80;57.90;;;;;;5033277;28;20112;-64
2022/03/06 11:03:57;;;;;;;2.25;1.40;;;17.80;57.80;;;;;;5032398;28;20104;-64
2022/03/06 11:06:22;;;;;;;1.65;1.50;;;17.80;57.80;;;;;;5032043;28;20029;-64
2022/03/06 11:08:48;;;;;;;2.78;1.30;;;17.80;57.80;;;;;;5015776;28;20033;-64
2022/03/06 11:11:14;;;;;;;1.98;1.60;;;17.80;57.80;;;;;;5032219;28;20029;-64
2022/03/06 11:13:39;;;;;;;1.65;1.38;;;17.80;57.80;;;;;;5015746;28;20022;-64
2022/03/06 11:16:05;;;;;;;1.40;1.30;;;17.80;57.80;;;;;;5032949;28;20021;-64
2022/03/06 11:18:32;;;;;;;2.03;1.48;;;17.80;57.80;;;;;;5032301;28;20488;-64
2022/03/06 11:20:59;;;;;;;1.48;1.38;;;17.80;57.80;;;;;;5032088;28;20033;-64
2022/03/06 11:23:41;;;;;;;2.45;1.67;;;17.80;57.80;;;;;;5022126;28;20044;-64
2022/03/06 11:26:14;;;;;;;1.63;1.50;;;17.80;57.80;;;;;;5033253;28;20483;-64
2022/03/06 11:28:43;;;;;;;1.52;1.42;;;17.80;57.80;;;;;;5048327;28;20022;-64
2022/03/06 11:31:09;;;;;;;2.03;1.17;;;17.80;57.90;;;;;;5033080;28;20102;-64
2022/03/06 11:33:35;;;;;;;1.98;1.67;;;17.80;57.90;;;;;;5032993;28;20025;-64
2022/03/06 11:36:16;;;;;;;1.98;1.77;;;17.70;57.80;;;;;;5048507;28;20499;-64
2022/03/06 11:38:45;;;;;;;2.33;1.65;;;17.80;57.70;;;;;;5048024;28;20021;-64
2022/03/06 11:41:11;;;;;;;1.45;1.27;;;17.80;57.80;;;;;;5031531;28;20396;-64
2022/03/06 11:43:48;;;;;;;1.60;1.50;;;17.80;57.80;;;;;;5032500;28;20501;-64
2022/03/06 11:46:16;;;;;;;1.95;1.45;;;17.80;57.80;;;;;;5031552;28;20100;-64
2022/03/06 11:48:42;;;;;;;1.55;1.45;;;17.80;57.90;;;;;;5032792;28;20026;-64
2022/03/06 11:51:22;;;;;;;1.85;1.50;;;17.80;57.90;;;;;;5032814;28;20031;-64
2022/03/06 11:54:10;;;;;;;1.42;1.30;;;17.80;57.80;;;;;;5032557;28;20025;-64
2022/03/06 11:56:39;;;;;;;1.75;1.17;;;17.80;57.80;;;;;;5032757;28;20025;-64
2022/03/06 11:59:09;;;;;;;1.40;1.30;;;17.80;57.90;;;;;;5032576;28;20034;-64
2022/03/06 12:01:57;;;;;;;1.60;1.45;;;17.70;57.80;;;;;;5031307;28;20451;-64
2022/03/06 12:04:27;;;;;;;2.55;1.52;;;17.80;57.70;;;;;;5032390;28;20041;-64
2022/03/06 12:07:05;;;;;;;1.42;1.25;;;17.80;57.90;;;;;;5047727;28;20021;-64
2022/03/06 12:09:33;;;;;;;1.55;1.10;;;17.70;57.80;;;;;;5032430;28;20021;-64
2022/03/06 12:12:01;;;;;;;1.48;1.35;;;17.80;57.80;;;;;;5032452;28;20010;-64
2022/03/06 12:14:34;;;;;;;1.92;1.50;;;17.80;57.90;;;;;;5047965;28;20025;-64
2022/03/06 12:17:00;;;;;;;1.50;1.20;;;17.80;57.80;;;;;;5032275;28;20017;-64
2022/03/06 12:19:29;;;;;;;1.55;1.20;;;17.80;57.90;;;;;;5032266;28;20423;-64
2022/03/06 12:22:21;;;;;;;1.63;1.30;;;17.80;57.90;;;;;;5047407;28;20045;-64
2022/03/06 12:25:10;;;;;;;1.80;1.33;;;17.80;57.70;;;;;;5032290;28;20068;-64
2022/03/06 12:27:40;;;;;;;1.88;1.42;;;17.80;57.90;;;;;;5031806;28;20038;-64
2022/03/06 12:30:07;;;;;;;1.20;1.10;;;17.70;57.90;;;;;;5047119;28;20070;-64
2022/03/06 12:32:34;;;;;;;1.80;1.58;;;17.80;57.90;;;;;;5032484;28;20048;-64
2022/03/06 12:35:18;;;;;;;1.85;1.48;;;17.70;57.80;;;;;;5031118;28;20567;-64
2022/03/06 12:37:44;;;;;;;2.53;1.70;;;17.70;57.80;;;;;;5032133;28;20500;-64
2022/03/06 12:40:12;;;;;;;1.40;1.30;;;17.70;57.80;;;;;;5032423;28;20025;-64
2022/03/06 12:42:38;;;;;;;1.75;1.38;;;17.80;57.90;;;;;;5032027;28;20079;-64
2022/03/06 12:45:11;;;;;;;1.50;1.30;;;17.80;57.90;;;;;;5047546;28;20032;-64
2022/03/06 12:47:38;;;;;;;1.88;1.27;;;17.80;57.80;;;;;;5047457;28;20088;-64